Cotile, Louisiana
Current Conditions -  °F | °C
As of 5:53 AM on Friday 21 Nov 2014 (Local Time) from KAEX Reporting Station
Light Rain Light Rain  
Wind Chill: 53°   Ceiling: 9000
Heat Index: 53°   Visibility: 10mi
Dew Point: 50°   Wind: 6mph
Humidity: 89%   Direction: 140°SE
Pressure: 30.2"   Gusts: NA
Location:  31.3168°N, 92.7338°W
Report Text: KAEX 211153Z AUTO 14005KT 10SM -RA FEW055 OVC090 12/10 A3020 RMK AO2 RAB35 SLP229 P0000 60000 T01170100 10122 20100 53004
Loading
Personal Weather Stations






























Interactive Weather Map New forecast layout! Learn more

10-Day Weather Forecast

Advertisements
Track Severe Weather on mobile